Lotheni — ZR8530 — position and weather

sailwx.info

Track history (hours):
 
Tides and Currents Weather Stations Pressure Air Temp Water Temp Dewpoint Dewpoint Depression Visibility Wind Speed Wind Dir Waves Ship Positions

Lotheni

Last reported at 2018-May-22 03:58 UTC. Time now 2018-May-22 04:23 UTC.
Position S 29°52' E 031°02'.

Type: Tug. MMSI: 601135800.

Date/timePositionNaut miles runAvg speedWind from/ knotsBaromVisibWave heightAir tempDewpointWater temp
2018-May-22 03:58S 29°52' E 031°02'0 0.0
2018-May-22 03:28S 29°52' E 031°02'0 0.0
2018-May-22 02:58S 29°52' E 031°02'0 0.0
2018-May-22 02:19S 29°52' E 031°02'0 0.0
2018-May-22 01:58S 29°52' E 031°02'0 0.0
2018-May-22 01:28S 29°52' E 031°02'1 3.0
2018-May-22 00:59S 29°53' E 031°03'0 0.1
2018-May-22 00:30S 29°53' E 031°03'1 1.6
2018-May-22 00:00S 29°52' E 031°04'1 1.4
2018-May-21 23:28S 29°52' E 031°03'1 2.0
2018-May-21 23:00S 29°52' E 031°02'1 0.9
2018-May-21 22:26S 29°53' E 031°01'0 0.0
2018-May-21 22:00S 29°53' E 031°01'1 2.0
2018-May-21 21:28S 29°52' E 031°02'0 0.0
2018-May-21 20:52S 29°52' E 031°02'0 0.0
2018-May-21 20:28S 29°52' E 031°02'1 1.3
2018-May-21 20:00S 29°52' E 031°02'1 1.7
2018-May-21 19:30S 29°53' E 031°03'0 0.0
2018-May-21 19:00S 29°53' E 031°03'0 0.0
2018-May-21 18:30S 29°53' E 031°03'0 0.7
2018-May-21 18:00S 29°53' E 031°03'1 1.8
2018-May-21 17:29S 29°52' E 031°02'0 0.7
2018-May-21 16:52S 29°53' E 031°02'1 2.2
2018-May-21 16:30S 29°52' E 031°02'0 0.0
2018-May-21 16:00S 29°52' E 031°02'0 0.0
2018-May-21 15:30S 29°52' E 031°02'0 0.0
2018-May-21 15:00S 29°52' E 031°02'0 0.0
2018-May-21 14:30S 29°52' E 031°02'0 0.0
2018-May-21 14:00S 29°52' E 031°02'1 1.9
2018-May-21 13:27S 29°52' E 031°01'0 0.7
2018-May-21 12:59S 29°52' E 031°01'1 1.5
2018-May-21 12:30S 29°52' E 031°02'0 0.0
2018-May-21 11:57S 29°52' E 031°02'0 0.0
2018-May-21 11:21S 29°52' E 031°02'1 3.2
2018-May-21 11:00S 29°52' E 031°01'0 0.2
2018-May-21 10:27S 29°52' E 031°01'2 3.5
2018-May-21 10:00S 29°53' E 031°03'1 0.6
2018-May-21 08:30S 29°53' E 031°02'0 0.6
2018-May-21 07:59S 29°53' E 031°02'1 1.7
2018-May-21 07:30S 29°53' E 031°02'0 0.1
2018-May-21 06:56S 29°53' E 031°02'1 1.7
2018-May-21 06:29S 29°53' E 031°03'1 1.2
2018-May-21 06:00S 29°53' E 031°02'1 1.9
2018-May-21 05:30S 29°53' E 031°01'1 1.4
2018-May-21 05:00S 29°52' E 031°02'0 0.8
2018-May-21 04:25S 29°52' E 031°02'0 0.0
2018-May-21 03:52S 29°52' E 031°02'0 0.0
2018-May-21 03:25S 29°52' E 031°02'0 0.0
2018-May-21 02:55S 29°52' E 031°02'0 0.0
2018-May-21 02:19S 29°52' E 031°02'0 0.0
2018-May-21 01:55S 29°52' E 031°02'0 0.4
2018-May-21 01:29S 29°52' E 031°02'0 0.5
2018-May-21 00:59S 29°52' E 031°02'0 0.8
2018-May-21 00:29S 29°52' E 031°02'0 0.2
2018-May-21 00:00S 29°52' E 031°02'1 2.9
2018-May-20 23:30S 29°53' E 031°00'0 0.0
2018-May-20 23:00S 29°53' E 031°00'2 4.1
2018-May-20 22:30S 29°53' E 031°03'1 2.2
2018-May-20 21:59S 29°52' E 031°02'0 0.0
2018-May-20 21:26S 29°52' E 031°02'0 0.0
2018-May-20 21:00S 29°52' E 031°02'1 1.3
2018-May-20 20:29S 29°52' E 031°02'1 1.4
2018-May-20 20:00S 29°53' E 031°01'1 1.3
2018-May-20 19:30S 29°52' E 031°02'1 2.8
2018-May-20 19:00S 29°53' E 031°00'0 0.2
2018-May-20 18:30S 29°53' E 031°00'2 2.7
2018-May-20 17:50S 29°52' E 031°02'0 0.0
2018-May-20 17:29S 29°52' E 031°02'0 0.0
2018-May-20 16:59S 29°52' E 031°02'0 0.0
2018-May-20 16:29S 29°52' E 031°02'0 0.0
2018-May-20 15:56S 29°52' E 031°02'0 0.0
2018-May-20 15:29S 29°52' E 031°02'0 0.0
2018-May-20 14:59S 29°52' E 031°02'0 0.0
2018-May-20 14:26S 29°52' E 031°02'0 0.0
2018-May-20 13:59S 29°52' E 031°02'0 0.0
2018-May-20 13:29S 29°52' E 031°02'0 0.0
2018-May-20 12:49S 29°52' E 031°02'0 0.0
2018-May-20 12:22S 29°52' E 031°02'0 0.0
2018-May-20 11:58S 29°52' E 031°02'0 0.0
2018-May-20 11:28S 29°52' E 031°02'0 0.0
2018-May-20 10:58S 29°52' E 031°02'1 1.1
2018-May-20 10:30S 29°52' E 031°02'0 0.4
2018-May-20 10:00S 29°52' E 031°02'1 1.4
2018-May-20 09:28S 29°52' E 031°02'0 0.0
2018-May-20 08:49S 29°52' E 031°02'0 0.0
2018-May-20 08:25S 29°52' E 031°02'1 2.7
2018-May-20 08:00S 29°53' E 031°01'0 0.4
2018-May-20 07:30S 29°53' E 031°02'1 2.6
2018-May-20 06:58S 29°53' E 031°03'0 0.1
2018-May-20 06:29S 29°53' E 031°03'1 1.9
2018-May-20 05:59S 29°52' E 031°02'1 1.1
2018-May-20 05:30S 29°53' E 031°03'1 2.0
2018-May-20 05:00S 29°52' E 031°02'0 0.0
2018-May-20 04:30S 29°52' E 031°02'0 0.0
2018-May-20 03:54S 29°52' E 031°02'0 0.0
2018-May-20 03:30S 29°52' E 031°02'0 0.0
2018-May-20 03:00S 29°52' E 031°02'0 0.0
2018-May-20 02:30S 29°52' E 031°02'0 0.1
2018-May-20 02:00S 29°52' E 031°02'2 3.1
2018-May-20 01:28S 29°53' E 031°00'1 2.4
2018-May-20 00:59S 29°52' E 031°01'1 2.2
2018-May-20 00:30S 29°53' E 031°03'1 1.7
2018-May-19 23:54S 29°52' E 031°02'0 0.0
2018-May-19 23:30S 29°52' E 031°02'0 0.0
2018-May-19 23:00S 29°52' E 031°02'0 0.0
2018-May-19 22:30S 29°52' E 031°02'0 0.0
2018-May-19 22:00S 29°52' E 031°02'0 0.0
2018-May-19 21:30S 29°52' E 031°02'0 0.0
2018-May-19 20:54S 29°52' E 031°02'0 0.0
2018-May-19 20:27S 29°52' E 031°02'0 0.0
2018-May-19 20:00S 29°52' E 031°02'1 2.2
2018-May-19 19:30S 29°53' E 031°02'2 3.4
2018-May-19 19:00S 29°52' E 031°01'0 0.0
2018-May-19 18:24S 29°52' E 031°01'2 4.0
2018-May-19 17:59S 29°53' E 031°02'2 3.5
2018-May-19 17:28S 29°53' E 031°00'1 0.9
2018-May-19 16:53S 29°53' E 031°00'1 3.4
2018-May-19 16:28S 29°52' E 031°02'0 0.0
2018-May-19 15:58S 29°52' E 031°02'0 0.0
2018-May-19 15:28S 29°52' E 031°02'0 0.0
2018-May-19 14:43S 29°52' E 031°02'0 0.0
2018-May-19 14:28S 29°52' E 031°02'0 0.0
2018-May-19 13:58S 29°52' E 031°02'0 0.0
2018-May-19 13:25S 29°52' E 031°02'0 0.0
2018-May-19 12:58S 29°52' E 031°02'0 0.0
2018-May-19 12:25S 29°52' E 031°02'0 0.0
2018-May-19 11:49S 29°52' E 031°02'0 0.0
2018-May-19 11:25S 29°52' E 031°02'0 0.0
2018-May-19 10:55S 29°52' E 031°02'0 0.0
2018-May-19 10:28S 29°52' E 031°02'0 0.0
2018-May-19 09:58S 29°52' E 031°02'0 0.0
2018-May-19 09:28S 29°52' E 031°02'1 0.5
2018-May-19 07:14S 29°52' E 031°03'0 0.0
2018-May-19 06:59S 29°52' E 031°03'0 0.0
2018-May-19 06:26S 29°52' E 031°03'1 3.0
2018-May-19 05:57S 29°53' E 031°01'1 2.4
2018-May-19 05:29S 29°53' E 031°02'1 1.7
2018-May-19 05:00S 29°52' E 031°02'0 0.2
2018-May-19 04:25S 29°52' E 031°02'0 0.0
2018-May-19 03:57S 29°52' E 031°02'1 1.7
2018-May-19 03:28S 29°53' E 031°02'0 0.1
2018-May-19 03:00S 29°53' E 031°02'1 1.6
2018-May-19 02:28S 29°52' E 031°02'0 0.0
2018-May-19 01:58S 29°52' E 031°02'0 0.0
2018-May-19 01:28S 29°52' E 031°02'0 0.0
2018-May-19 00:58S 29°52' E 031°02'0 0.0
2018-May-19 00:22S 29°52' E 031°02'0 0.0
2018-May-18 23:52S 29°52' E 031°02'0 0.0
2018-May-18 23:28S 29°52' E 031°02'0 0.1
2018-May-18 22:55S 29°52' E 031°02'1 2.9
2018-May-18 22:30S 29°53' E 031°03'1 2.5
2018-May-18 21:58S 29°52' E 031°02'0 0.0
2018-May-18 21:28S 29°52' E 031°02'0 0.0
2018-May-18 20:58S 29°52' E 031°02'0 0.0
2018-May-18 20:25S 29°52' E 031°02'0 0.0
2018-May-18 19:43S 29°52' E 031°02'0 0.0
2018-May-18 19:25S 29°52' E 031°02'0 0.0
2018-May-18 18:49S 29°52' E 031°02'0 0.0
2018-May-18 18:25S 29°52' E 031°02'1 1.2
2018-May-18 17:49S 29°52' E 031°02'0 0.4
2018-May-18 17:30S 29°52' E 031°02'1 1.5
2018-May-18 16:58S 29°53' E 031°03'1 3.1
2018-May-18 16:30S 29°52' E 031°02'0 0.0
2018-May-18 16:00S 29°52' E 031°02'0 0.0
2018-May-18 15:30S 29°52' E 031°02'0 0.0
2018-May-18 15:00S 29°52' E 031°02'  
Track history (hours):
 
Tides and Currents Weather Stations Pressure Air Temp Water Temp Dewpoint Dewpoint Depression Visibility Wind Speed Wind Dir Waves Ship Positions

Lotheni

Last reported at 2018-May-22 03:58 UTC. Time now 2018-May-22 04:23 UTC.
Position S 29°52' E 031°02'.

Type: Tug. MMSI: 601135800.

Date/timePositionNaut miles runAvg speedWind from/ knotsBaromVisibWave heightAir tempDewpointWater temp
2018-May-22 03:58S 29°52' E 031°02'0 0.0
2018-May-22 03:28S 29°52' E 031°02'0 0.0
2018-May-22 02:58S 29°52' E 031°02'0 0.0
2018-May-22 02:19S 29°52' E 031°02'0 0.0
2018-May-22 01:58S 29°52' E 031°02'0 0.0
2018-May-22 01:28S 29°52' E 031°02'1 3.0
2018-May-22 00:59S 29°53' E 031°03'0 0.1
2018-May-22 00:30S 29°53' E 031°03'1 1.6
2018-May-22 00:00S 29°52' E 031°04'1 1.4
2018-May-21 23:28S 29°52' E 031°03'1 2.0
2018-May-21 23:00S 29°52' E 031°02'1 0.9
2018-May-21 22:26S 29°53' E 031°01'0 0.0
2018-May-21 22:00S 29°53' E 031°01'1 2.0
2018-May-21 21:28S 29°52' E 031°02'0 0.0
2018-May-21 20:52S 29°52' E 031°02'0 0.0
2018-May-21 20:28S 29°52' E 031°02'1 1.3
2018-May-21 20:00S 29°52' E 031°02'1 1.7
2018-May-21 19:30S 29°53' E 031°03'0 0.0
2018-May-21 19:00S 29°53' E 031°03'0 0.0
2018-May-21 18:30S 29°53' E 031°03'0 0.7
2018-May-21 18:00S 29°53' E 031°03'1 1.8
2018-May-21 17:29S 29°52' E 031°02'0 0.7
2018-May-21 16:52S 29°53' E 031°02'1 2.2
2018-May-21 16:30S 29°52' E 031°02'0 0.0
2018-May-21 16:00S 29°52' E 031°02'0 0.0
2018-May-21 15:30S 29°52' E 031°02'0 0.0
2018-May-21 15:00S 29°52' E 031°02'0 0.0
2018-May-21 14:30S 29°52' E 031°02'0 0.0
2018-May-21 14:00S 29°52' E 031°02'1 1.9
2018-May-21 13:27S 29°52' E 031°01'0 0.7
2018-May-21 12:59S 29°52' E 031°01'1 1.5
2018-May-21 12:30S 29°52' E 031°02'0 0.0
2018-May-21 11:57S 29°52' E 031°02'0 0.0
2018-May-21 11:21S 29°52' E 031°02'1 3.2
2018-May-21 11:00S 29°52' E 031°01'0 0.2
2018-May-21 10:27S 29°52' E 031°01'2 3.5
2018-May-21 10:00S 29°53' E 031°03'1 0.6
2018-May-21 08:30S 29°53' E 031°02'0 0.6
2018-May-21 07:59S 29°53' E 031°02'1 1.7
2018-May-21 07:30S 29°53' E 031°02'0 0.1
2018-May-21 06:56S 29°53' E 031°02'1 1.7
2018-May-21 06:29S 29°53' E 031°03'1 1.2
2018-May-21 06:00S 29°53' E 031°02'1 1.9
2018-May-21 05:30S 29°53' E 031°01'1 1.4
2018-May-21 05:00S 29°52' E 031°02'0 0.8
2018-May-21 04:25S 29°52' E 031°02'0 0.0
2018-May-21 03:52S 29°52' E 031°02'0 0.0
2018-May-21 03:25S 29°52' E 031°02'0 0.0
2018-May-21 02:55S 29°52' E 031°02'0 0.0
2018-May-21 02:19S 29°52' E 031°02'0 0.0
2018-May-21 01:55S 29°52' E 031°02'0 0.4
2018-May-21 01:29S 29°52' E 031°02'0 0.5
2018-May-21 00:59S 29°52' E 031°02'0 0.8
2018-May-21 00:29S 29°52' E 031°02'0 0.2
2018-May-21 00:00S 29°52' E 031°02'1 2.9
2018-May-20 23:30S 29°53' E 031°00'0 0.0
2018-May-20 23:00S 29°53' E 031°00'2 4.1
2018-May-20 22:30S 29°53' E 031°03'1 2.2
2018-May-20 21:59S 29°52' E 031°02'0 0.0
2018-May-20 21:26S 29°52' E 031°02'0 0.0
2018-May-20 21:00S 29°52' E 031°02'1 1.3
2018-May-20 20:29S 29°52' E 031°02'1 1.4
2018-May-20 20:00S 29°53' E 031°01'1 1.3
2018-May-20 19:30S 29°52' E 031°02'1 2.8
2018-May-20 19:00S 29°53' E 031°00'0 0.2
2018-May-20 18:30S 29°53' E 031°00'2 2.7
2018-May-20 17:50S 29°52' E 031°02'0 0.0
2018-May-20 17:29S 29°52' E 031°02'0 0.0
2018-May-20 16:59S 29°52' E 031°02'0 0.0
2018-May-20 16:29S 29°52' E 031°02'0 0.0
2018-May-20 15:56S 29°52' E 031°02'0 0.0
2018-May-20 15:29S 29°52' E 031°02'0 0.0
2018-May-20 14:59S 29°52' E 031°02'0 0.0
2018-May-20 14:26S 29°52' E 031°02'0 0.0
2018-May-20 13:59S 29°52' E 031°02'0 0.0
2018-May-20 13:29S 29°52' E 031°02'0 0.0
2018-May-20 12:49S 29°52' E 031°02'0 0.0
2018-May-20 12:22S 29°52' E 031°02'0 0.0
2018-May-20 11:58S 29°52' E 031°02'0 0.0
2018-May-20 11:28S 29°52' E 031°02'0 0.0
2018-May-20 10:58S 29°52' E 031°02'1 1.1
2018-May-20 10:30S 29°52' E 031°02'0 0.4
2018-May-20 10:00S 29°52' E 031°02'1 1.4
2018-May-20 09:28S 29°52' E 031°02'0 0.0
2018-May-20 08:49S 29°52' E 031°02'0 0.0
2018-May-20 08:25S 29°52' E 031°02'1 2.7
2018-May-20 08:00S 29°53' E 031°01'0 0.4
2018-May-20 07:30S 29°53' E 031°02'1 2.6
2018-May-20 06:58S 29°53' E 031°03'0 0.1
2018-May-20 06:29S 29°53' E 031°03'1 1.9
2018-May-20 05:59S 29°52' E 031°02'1 1.1
2018-May-20 05:30S 29°53' E 031°03'1 2.0
2018-May-20 05:00S 29°52' E 031°02'0 0.0
2018-May-20 04:30S 29°52' E 031°02'0 0.0
2018-May-20 03:54S 29°52' E 031°02'0 0.0
2018-May-20 03:30S 29°52' E 031°02'0 0.0
2018-May-20 03:00S 29°52' E 031°02'0 0.0
2018-May-20 02:30S 29°52' E 031°02'0 0.1
2018-May-20 02:00S 29°52' E 031°02'2 3.1
2018-May-20 01:28S 29°53' E 031°00'1 2.4
2018-May-20 00:59S 29°52' E 031°01'1 2.2
2018-May-20 00:30S 29°53' E 031°03'1 1.7
2018-May-19 23:54S 29°52' E 031°02'0 0.0
2018-May-19 23:30S 29°52' E 031°02'0 0.0
2018-May-19 23:00S 29°52' E 031°02'0 0.0
2018-May-19 22:30S 29°52' E 031°02'0 0.0
2018-May-19 22:00S 29°52' E 031°02'0 0.0
2018-May-19 21:30S 29°52' E 031°02'0 0.0
2018-May-19 20:54S 29°52' E 031°02'0 0.0
2018-May-19 20:27S 29°52' E 031°02'0 0.0
2018-May-19 20:00S 29°52' E 031°02'1 2.2
2018-May-19 19:30S 29°53' E 031°02'2 3.4
2018-May-19 19:00S 29°52' E 031°01'0 0.0
2018-May-19 18:24S 29°52' E 031°01'2 4.0
2018-May-19 17:59S 29°53' E 031°02'2 3.5
2018-May-19 17:28S 29°53' E 031°00'1 0.9
2018-May-19 16:53S 29°53' E 031°00'1 3.4
2018-May-19 16:28S 29°52' E 031°02'0 0.0
2018-May-19 15:58S 29°52' E 031°02'0 0.0
2018-May-19 15:28S 29°52' E 031°02'0 0.0
2018-May-19 14:43S 29°52' E 031°02'0 0.0
2018-May-19 14:28S 29°52' E 031°02'0 0.0
2018-May-19 13:58S 29°52' E 031°02'0 0.0
2018-May-19 13:25S 29°52' E 031°02'0 0.0
2018-May-19 12:58S 29°52' E 031°02'0 0.0
2018-May-19 12:25S 29°52' E 031°02'0 0.0
2018-May-19 11:49S 29°52' E 031°02'0 0.0
2018-May-19 11:25S 29°52' E 031°02'0 0.0
2018-May-19 10:55S 29°52' E 031°02'0 0.0
2018-May-19 10:28S 29°52' E 031°02'0 0.0
2018-May-19 09:58S 29°52' E 031°02'0 0.0
2018-May-19 09:28S 29°52' E 031°02'1 0.5
2018-May-19 07:14S 29°52' E 031°03'0 0.0
2018-May-19 06:59S 29°52' E 031°03'0 0.0
2018-May-19 06:26S 29°52' E 031°03'1 3.0
2018-May-19 05:57S 29°53' E 031°01'1 2.4
2018-May-19 05:29S 29°53' E 031°02'1 1.7
2018-May-19 05:00S 29°52' E 031°02'0 0.2
2018-May-19 04:25S 29°52' E 031°02'0 0.0
2018-May-19 03:57S 29°52' E 031°02'1 1.7
2018-May-19 03:28S 29°53' E 031°02'0 0.1
2018-May-19 03:00S 29°53' E 031°02'1 1.6
2018-May-19 02:28S 29°52' E 031°02'0 0.0
2018-May-19 01:58S 29°52' E 031°02'0 0.0
2018-May-19 01:28S 29°52' E 031°02'0 0.0
2018-May-19 00:58S 29°52' E 031°02'0 0.0
2018-May-19 00:22S 29°52' E 031°02'0 0.0
2018-May-18 23:52S 29°52' E 031°02'0 0.0
2018-May-18 23:28S 29°52' E 031°02'0 0.1
2018-May-18 22:55S 29°52' E 031°02'1 2.9
2018-May-18 22:30S 29°53' E 031°03'1 2.5
2018-May-18 21:58S 29°52' E 031°02'0 0.0
2018-May-18 21:28S 29°52' E 031°02'0 0.0
2018-May-18 20:58S 29°52' E 031°02'0 0.0
2018-May-18 20:25S 29°52' E 031°02'0 0.0
2018-May-18 19:43S 29°52' E 031°02'0 0.0
2018-May-18 19:25S 29°52' E 031°02'0 0.0
2018-May-18 18:49S 29°52' E 031°02'0 0.0
2018-May-18 18:25S 29°52' E 031°02'1 1.2
2018-May-18 17:49S 29°52' E 031°02'0 0.4
2018-May-18 17:30S 29°52' E 031°02'1 1.5
2018-May-18 16:58S 29°53' E 031°03'1 3.1
2018-May-18 16:30S 29°52' E 031°02'0 0.0
2018-May-18 16:00S 29°52' E 031°02'0 0.0
2018-May-18 15:30S 29°52' E 031°02'0 0.0
2018-May-18 15:00S 29°52' E 031°02'  

Dump ship's entire track history